createdAt,value
2023-04-15T00:01:45.129Z,2.50
2023-04-15T00:04:12.369Z,2.08
2023-04-15T00:06:40.101Z,3.53
2023-04-15T00:09:07.240Z,2.35
2023-04-15T00:11:34.811Z,2.58
2023-04-15T00:14:02.185Z,2.30
2023-04-15T00:16:29.493Z,2.47
2023-04-15T00:18:56.909Z,2.55
2023-04-15T00:21:24.133Z,2.17
2023-04-15T00:23:53.732Z,2.00
2023-04-15T00:26:21.052Z,1.98
2023-04-15T00:28:48.133Z,1.58
2023-04-15T00:31:15.627Z,1.58
2023-04-15T00:33:42.635Z,1.48
2023-04-15T00:36:11.329Z,1.50
2023-04-15T00:38:38.701Z,1.25
2023-04-15T00:41:05.969Z,1.02
2023-04-15T00:43:32.875Z,1.00
2023-04-15T00:46:03.842Z,1.20
2023-04-15T00:48:32.334Z,1.23
2023-04-15T00:50:59.954Z,1.20
2023-04-15T00:53:26.902Z,1.10
2023-04-15T00:55:54.700Z,1.10
2023-04-15T00:58:21.836Z,1.00
2023-04-15T01:00:49.345Z,1.10
2023-04-15T01:03:16.552Z,1.00
2023-04-15T01:05:43.812Z,1.10
2023-04-15T01:08:10.901Z,1.38
2023-04-15T01:10:39.530Z,1.60
2023-04-15T01:13:06.905Z,1.20
2023-04-15T01:15:36.644Z,1.33
2023-04-15T01:18:03.827Z,1.80
2023-04-15T01:20:31.189Z,1.60
2023-04-15T01:22:58.962Z,1.48
2023-04-15T01:25:34.908Z,1.50
2023-04-15T01:28:02.301Z,1.50
2023-04-15T01:30:29.964Z,1.30
2023-04-15T01:32:57.098Z,1.10
2023-04-15T01:35:24.773Z,1.40
2023-04-15T01:37:52.608Z,1.38
2023-04-15T01:40:20.544Z,1.13
2023-04-15T01:42:47.623Z,1.10
2023-04-15T01:45:15.129Z,1.48
2023-04-15T01:47:42.212Z,1.23
2023-04-15T01:50:10.206Z,1.10
2023-04-15T01:52:37.559Z,1.30
2023-04-15T01:55:06.335Z,1.38
2023-04-15T01:57:33.194Z,1.50
2023-04-15T02:00:00.444Z,1.25
2023-04-15T02:02:27.697Z,1.80
2023-04-15T02:04:55.707Z,1.40
2023-04-15T02:07:22.822Z,1.65
2023-04-15T02:09:49.991Z,1.75
2023-04-15T02:12:17.040Z,1.30
2023-04-15T02:14:44.222Z,1.23
2023-04-15T02:17:11.739Z,1.35
2023-04-15T02:19:40.477Z,1.55
2023-04-15T02:22:09.324Z,1.95
2023-04-15T02:24:36.684Z,1.40
2023-04-15T02:27:03.743Z,1.40
2023-04-15T02:29:32.935Z,1.35
2023-04-15T02:31:59.905Z,3.67
2023-04-15T02:34:27.404Z,1.30
2023-04-15T02:36:57.380Z,1.52
2023-04-15T02:39:24.701Z,1.20
2023-04-15T02:41:52.520Z,1.17
2023-04-15T02:44:20.554Z,1.05
2023-04-15T02:46:52.568Z,1.05
2023-04-15T02:49:19.917Z,1.13
2023-04-15T02:51:51.313Z,1.20
2023-04-15T02:54:23.377Z,1.30
2023-04-15T02:56:50.835Z,1.55
2023-04-15T02:59:18.025Z,1.17
2023-04-15T03:01:45.080Z,0.95
2023-04-15T03:04:13.643Z,1.15
2023-04-15T03:06:40.849Z,1.20
2023-04-15T03:09:08.395Z,1.27
2023-04-15T03:11:40.529Z,1.20
2023-04-15T03:14:07.846Z,1.02
2023-04-15T03:16:34.903Z,1.20
2023-04-15T03:19:02.288Z,1.13
2023-04-15T03:21:29.345Z,1.17
2023-04-15T03:23:57.370Z,1.20
2023-04-15T03:26:29.694Z,1.48
2023-04-15T03:28:57.438Z,1.20
2023-04-15T03:31:57.063Z,1.25
2023-04-15T03:34:24.359Z,1.48
2023-04-15T03:36:51.341Z,1.20
2023-04-15T03:39:18.561Z,1.40
2023-04-15T03:41:45.817Z,1.55
2023-04-15T03:44:13.052Z,1.50
2023-04-15T03:46:40.048Z,2.00
2023-04-15T03:49:07.624Z,2.15
2023-04-15T03:51:34.820Z,2.45
2023-04-15T03:54:02.340Z,2.72
2023-04-15T03:56:29.230Z,2.85
2023-04-15T03:58:56.622Z,3.55
2023-04-15T04:01:23.630Z,4.60
2023-04-15T04:03:51.042Z,4.90
2023-04-15T04:06:18.162Z,4.88
2023-04-15T04:08:45.407Z,5.60
2023-04-15T04:11:12.670Z,7.40
2023-04-15T04:13:41.178Z,8.00
2023-04-15T04:16:10.205Z,8.02
2023-04-15T04:18:40.000Z,7.60
2023-04-15T04:21:09.770Z,7.75
2023-04-15T04:23:39.689Z,7.22
2023-04-15T04:26:08.974Z,7.57
2023-04-15T04:28:40.001Z,7.28
2023-04-15T04:31:08.364Z,6.95
2023-04-15T04:33:37.684Z,6.45
2023-04-15T04:36:07.607Z,5.85
2023-04-15T04:38:37.441Z,5.90
2023-04-15T04:41:06.899Z,4.38
2023-04-15T04:43:36.634Z,5.50
2023-04-15T04:46:06.475Z,5.35
2023-04-15T04:48:37.462Z,5.32
2023-04-15T04:51:05.654Z,5.53
2023-04-15T04:53:34.806Z,5.22
2023-04-15T04:56:03.716Z,5.30
2023-04-15T04:58:33.172Z,5.57
2023-04-15T05:01:03.777Z,5.45
2023-04-15T05:03:33.287Z,5.35
2023-04-15T05:06:06.624Z,4.72
2023-04-15T05:08:34.890Z,5.30
2023-04-15T05:11:05.218Z,5.05
2023-04-15T05:13:35.853Z,4.75
2023-04-15T05:16:04.318Z,4.45
2023-04-15T05:18:37.367Z,4.75
2023-04-15T05:21:06.050Z,4.70
2023-04-15T05:23:36.602Z,4.65
2023-04-15T05:26:05.458Z,4.95
2023-04-15T05:28:35.281Z,4.65
2023-04-15T05:31:04.595Z,5.03
2023-04-15T05:33:34.233Z,4.93
2023-04-15T05:36:02.738Z,4.32
2023-04-15T05:38:31.948Z,5.60
2023-04-15T05:41:00.677Z,4.80
2023-04-15T05:43:29.190Z,3.95
2023-04-15T05:45:57.500Z,4.32
2023-04-15T05:48:25.201Z,3.58
2023-04-15T05:50:52.169Z,4.10
2023-04-15T05:53:19.430Z,3.80
2023-04-15T05:55:46.882Z,3.38
2023-04-15T05:58:14.011Z,3.53
2023-04-15T06:00:40.970Z,3.45
2023-04-15T06:03:08.325Z,3.97
2023-04-15T06:05:35.723Z,3.22
2023-04-15T06:08:03.053Z,4.78
2023-04-15T06:10:30.890Z,3.95
2023-04-15T06:12:58.118Z,2.80
2023-04-15T06:15:25.021Z,3.17
2023-04-15T06:17:52.501Z,2.90
2023-04-15T06:20:19.534Z,3.05
2023-04-15T06:22:46.935Z,3.20
2023-04-15T06:25:14.210Z,2.63
2023-04-15T06:27:41.555Z,2.72
2023-04-15T06:30:09.353Z,3.03
2023-04-15T06:32:36.792Z,2.95
2023-04-15T06:35:04.131Z,3.40
2023-04-15T06:37:32.700Z,3.42
2023-04-15T06:39:59.752Z,3.00
2023-04-15T06:42:27.070Z,2.60
2023-04-15T06:44:54.009Z,3.10
2023-04-15T06:47:21.741Z,2.45
2023-04-15T06:49:48.766Z,2.88
2023-04-15T06:52:16.797Z,2.90
2023-04-15T06:54:43.818Z,2.03
2023-04-15T06:57:11.314Z,2.25
2023-04-15T06:59:38.321Z,1.90
2023-04-15T07:02:06.271Z,2.05
2023-04-15T07:04:33.682Z,1.60
2023-04-15T07:07:02.643Z,1.15
2023-04-15T07:09:29.831Z,1.05
2023-04-15T07:11:57.512Z,0.90
2023-04-15T07:14:24.421Z,0.70
2023-04-15T07:16:51.819Z,1.23
2023-04-15T07:19:18.812Z,0.68
2023-04-15T07:21:47.644Z,0.60
2023-04-15T07:24:18.202Z,0.60
2023-04-15T07:26:45.832Z,0.80
2023-04-15T07:29:12.792Z,0.68
2023-04-15T07:31:42.389Z,0.60
2023-04-15T07:34:09.367Z,0.90
2023-04-15T07:36:37.561Z,0.65
2023-04-15T07:39:04.609Z,0.60
2023-04-15T07:41:32.213Z,0.47
2023-04-15T07:43:59.597Z,0.55
2023-04-15T07:46:27.594Z,0.45
2023-04-15T07:48:54.632Z,0.57
2023-04-15T07:51:22.416Z,1.10
2023-04-15T07:53:50.477Z,1.33
2023-04-15T07:56:18.008Z,1.10
2023-04-15T07:58:45.071Z,1.13
2023-04-15T08:01:12.740Z,0.70
2023-04-15T08:03:40.069Z,0.90
2023-04-15T08:06:08.164Z,0.80
2023-04-15T08:08:35.711Z,1.77
2023-04-15T08:11:03.084Z,0.60
2023-04-15T08:13:30.180Z,0.90
2023-04-15T08:16:27.898Z,0.70
2023-04-15T08:18:56.860Z,1.20
2023-04-15T08:21:25.054Z,0.70
2023-04-15T08:23:54.579Z,0.70
2023-04-15T08:26:22.230Z,0.60
2023-04-15T08:28:49.974Z,0.60
2023-04-15T08:31:19.171Z,0.90
2023-04-15T08:33:46.848Z,0.70
2023-04-15T08:36:14.195Z,0.90
2023-04-15T08:38:41.907Z,1.00
2023-04-15T08:41:25.408Z,0.82
2023-04-15T08:44:05.302Z,0.80
2023-04-15T08:46:37.375Z,1.00
2023-04-15T08:49:05.840Z,0.90
2023-04-15T08:51:34.011Z,1.10
2023-04-15T08:54:02.625Z,0.95
2023-04-15T08:56:33.312Z,1.30
2023-04-15T08:59:01.262Z,1.00
2023-04-15T09:01:29.460Z,1.00
2023-04-15T09:03:57.704Z,0.90
2023-04-15T09:06:26.179Z,1.13
2023-04-15T09:08:53.434Z,0.90
2023-04-15T09:11:22.553Z,1.10
2023-04-15T09:13:50.108Z,1.35
2023-04-15T09:16:17.522Z,1.02
2023-04-15T09:18:48.040Z,0.95
2023-04-15T09:21:17.758Z,1.20
2023-04-15T09:24:00.498Z,1.73
2023-04-15T09:26:37.424Z,1.27
2023-04-15T09:29:10.509Z,1.40
2023-04-15T09:31:37.989Z,1.20
2023-04-15T09:34:06.313Z,1.30
2023-04-15T09:36:51.838Z,1.40
2023-04-15T09:39:19.017Z,1.55
2023-04-15T09:41:48.810Z,1.98
2023-04-15T09:44:27.172Z,1.95
2023-04-15T09:46:54.540Z,2.22
2023-04-15T09:49:21.703Z,11.65
2023-04-15T09:52:03.935Z,2.30
2023-04-15T09:54:39.329Z,1.75
2023-04-15T09:57:10.433Z,2.75
2023-04-15T09:59:37.679Z,2.22
2023-04-15T10:02:08.896Z,1.92
2023-04-15T10:04:41.651Z,1.67
2023-04-15T10:07:10.010Z,2.45
2023-04-15T10:09:39.017Z,1.88
2023-04-15T10:12:06.721Z,2.20
2023-04-15T10:14:38.831Z,1.60
2023-04-15T10:17:11.282Z,2.45
2023-04-15T10:19:38.945Z,2.05
2023-04-15T10:22:08.142Z,1.83
2023-04-15T10:24:35.429Z,1.65
2023-04-15T10:27:05.492Z,1.90
2023-04-15T10:29:33.215Z,1.73
2023-04-15T10:32:02.654Z,2.60
2023-04-15T10:34:31.497Z,1.85
2023-04-15T10:37:03.935Z,1.75
2023-04-15T10:39:37.408Z,1.77
2023-04-15T10:42:19.507Z,1.75
2023-04-15T10:44:52.314Z,1.92
2023-04-15T10:47:22.049Z,2.08
2023-04-15T10:49:58.111Z,2.20
2023-04-15T10:52:28.879Z,1.90
2023-04-15T10:55:11.355Z,1.70
2023-04-15T10:57:40.996Z,1.95
2023-04-15T11:00:13.117Z,1.70
2023-04-15T11:02:56.611Z,1.63
2023-04-15T11:05:52.350Z,1.50
2023-04-15T11:08:21.300Z,2.58
2023-04-15T11:10:48.160Z,2.08
2023-04-15T11:13:22.791Z,1.73
2023-04-15T11:15:50.250Z,1.95
2023-04-15T11:18:22.730Z,1.75
2023-04-15T11:21:01.870Z,1.90
2023-04-15T11:23:46.878Z,2.28
2023-04-15T11:26:14.193Z,2.03
2023-04-15T11:28:46.340Z,2.20
2023-04-15T11:31:20.045Z,1.95
2023-04-15T11:34:01.728Z,1.73
2023-04-15T11:36:32.296Z,2.00
2023-04-15T11:39:00.776Z,1.80
2023-04-15T11:41:28.613Z,1.30
2023-04-15T11:43:56.587Z,1.30
2023-04-15T11:46:32.247Z,1.60
2023-04-15T11:49:01.910Z,1.67
2023-04-15T11:51:34.938Z,1.75
2023-04-15T11:54:03.004Z,1.80
2023-04-15T11:56:30.229Z,2.05
2023-04-15T11:58:59.881Z,2.25
2023-04-15T12:01:44.056Z,1.85
2023-04-15T12:04:25.566Z,1.73
2023-04-15T12:06:53.567Z,1.83
2023-04-15T12:09:21.938Z,2.22
2023-04-15T12:11:57.704Z,1.80
2023-04-15T12:14:33.257Z,1.80
2023-04-15T12:19:34.933Z,2.58
2023-04-15T12:22:09.521Z,2.75
2023-04-15T12:24:38.376Z,2.58
2023-04-15T12:27:12.168Z,2.67
2023-04-15T12:29:43.280Z,8.57
2023-04-15T12:32:16.290Z,5.75
2023-04-15T12:34:51.255Z,2.97
2023-04-15T12:37:19.624Z,3.35
2023-04-15T12:39:50.650Z,3.15
2023-04-15T12:42:18.801Z,4.82
2023-04-15T12:44:47.097Z,3.67
2023-04-15T12:47:14.887Z,2.90
2023-04-15T12:49:42.439Z,2.55
2023-04-15T12:52:09.751Z,2.50
2023-04-15T12:54:37.523Z,2.20
2023-04-15T12:57:07.241Z,2.28
2023-04-15T12:59:39.441Z,2.30
2023-04-15T13:02:06.683Z,3.53
2023-04-15T13:04:34.201Z,4.65
2023-04-15T13:07:02.945Z,11.13
2023-04-15T13:09:31.265Z,26.35
2023-04-15T13:11:58.431Z,25.65
2023-04-15T13:14:25.792Z,13.82
2023-04-15T13:16:53.856Z,11.77
2023-04-15T13:19:21.418Z,4.38
2023-04-15T13:21:48.633Z,2.95
2023-04-15T13:24:16.020Z,1.70
2023-04-15T13:26:43.099Z,1.90
2023-04-15T13:29:11.642Z,1.85
2023-04-15T13:31:38.741Z,6.95
2023-04-15T13:34:06.296Z,2.67
2023-04-15T13:36:33.511Z,2.30
2023-04-15T13:39:01.115Z,2.50
2023-04-15T13:41:28.132Z,2.03
2023-04-15T13:43:55.777Z,1.60
2023-04-15T13:46:22.873Z,1.73
2023-04-15T13:48:50.329Z,3.08
2023-04-15T13:51:17.261Z,1.98
2023-04-15T13:53:44.521Z,1.77
2023-04-15T13:56:11.522Z,1.83
2023-04-15T13:58:38.996Z,1.77
2023-04-15T14:01:07.437Z,1.92
2023-04-15T14:03:36.842Z,1.98
2023-04-15T14:06:08.494Z,1.92
2023-04-15T14:08:36.029Z,1.90
2023-04-15T14:11:03.069Z,1.80
2023-04-15T14:13:31.543Z,1.70
2023-04-15T14:15:58.666Z,1.38
2023-04-15T14:18:26.205Z,1.70
2023-04-15T14:20:53.824Z,1.83
2023-04-15T14:23:21.958Z,2.30
2023-04-15T14:25:49.309Z,1.80
2023-04-15T14:28:16.973Z,1.92
2023-04-15T14:30:44.148Z,1.40
2023-04-15T14:33:12.033Z,1.40
2023-04-15T14:35:39.659Z,1.80
2023-04-15T14:38:10.938Z,1.48
2023-04-15T14:40:38.744Z,1.77
2023-04-15T14:43:06.247Z,1.40
2023-04-15T14:45:33.660Z,1.98
2023-04-15T14:48:01.623Z,1.85
2023-04-15T14:50:28.809Z,1.40
2023-04-15T14:52:56.168Z,1.50
2023-04-15T14:55:23.164Z,1.75
2023-04-15T14:57:50.691Z,1.58
2023-04-15T15:00:17.825Z,1.23
2023-04-15T15:02:49.587Z,1.20
2023-04-15T15:05:16.845Z,1.30
2023-04-15T15:07:44.263Z,1.55
2023-04-15T15:10:11.291Z,1.80
2023-04-15T15:12:38.621Z,1.60
2023-04-15T15:15:15.717Z,1.13
2023-04-15T15:17:54.596Z,4.03
2023-04-15T15:20:22.191Z,1.90
2023-04-15T15:22:49.910Z,1.67
2023-04-15T15:25:17.158Z,2.15
2023-04-15T15:27:44.618Z,1.80
2023-04-15T15:30:12.835Z,2.03
2023-04-15T15:32:41.941Z,1.50
2023-04-15T15:35:10.503Z,2.25
2023-04-15T15:37:38.758Z,1.63
2023-04-15T15:40:07.471Z,1.17
2023-04-15T15:42:35.720Z,1.60
2023-04-15T15:45:04.739Z,1.95
2023-04-15T15:47:32.181Z,1.70
2023-04-15T15:50:02.714Z,1.67
2023-04-15T15:52:31.678Z,1.80
2023-04-15T15:54:58.695Z,2.00
2023-04-15T15:57:26.148Z,1.85
2023-04-15T16:00:04.891Z,1.73
2023-04-15T16:03:04.308Z,1.75
2023-04-15T16:05:25.490Z,1.63
2023-04-15T16:07:52.914Z,2.00
2023-04-15T16:10:20.170Z,1.83
2023-04-15T16:12:47.508Z,5.18
2023-04-15T16:15:14.691Z,1.77
2023-04-15T16:17:42.095Z,1.55
2023-04-15T16:20:09.989Z,2.20
2023-04-15T16:22:37.779Z,1.55
2023-04-15T16:25:05.170Z,1.33
2023-04-15T16:27:33.798Z,1.75
2023-04-15T16:30:02.858Z,1.58
2023-04-15T16:32:30.787Z,1.63
2023-04-15T16:34:57.881Z,1.70
2023-04-15T16:37:25.445Z,1.90
2023-04-15T16:39:53.378Z,2.55
2023-04-15T16:42:20.826Z,1.60
2023-04-15T16:44:47.844Z,1.58
2023-04-15T16:47:15.642Z,2.65
2023-04-15T16:49:43.888Z,1.70
2023-04-15T16:52:11.325Z,2.03
2023-04-15T16:54:41.591Z,2.35
2023-04-15T16:57:09.078Z,2.22
2023-04-15T16:59:36.672Z,3.00
2023-04-15T17:02:04.055Z,2.85
2023-04-15T17:04:31.324Z,2.80
2023-04-15T17:06:58.849Z,5.40
2023-04-15T17:09:25.859Z,2.90
2023-04-15T17:11:53.242Z,3.40
2023-04-15T17:14:20.197Z,2.75
2023-04-15T17:16:48.294Z,2.88
2023-04-15T17:19:15.752Z,2.97
2023-04-15T17:21:43.123Z,4.32
2023-04-15T17:24:10.137Z,2.50
2023-04-15T17:26:37.452Z,2.40
2023-04-15T17:29:04.701Z,2.35
2023-04-15T17:31:32.512Z,5.45
2023-04-15T17:34:09.468Z,2.42
2023-04-15T17:36:37.719Z,2.10
2023-04-15T17:39:04.875Z,2.03
2023-04-15T17:41:32.376Z,2.50
2023-04-15T17:43:59.403Z,2.60
2023-04-15T17:46:27.294Z,2.42
2023-04-15T17:48:54.266Z,3.00
2023-04-15T17:51:21.827Z,3.17
2023-04-15T17:53:49.158Z,2.70
2023-04-15T17:56:17.109Z,3.00
2023-04-15T17:58:45.107Z,2.90
2023-04-15T18:01:12.672Z,3.17
2023-04-15T18:03:40.104Z,3.40
2023-04-15T18:06:07.643Z,2.70
2023-04-15T18:08:34.788Z,3.42
2023-04-15T18:11:02.198Z,3.25
2023-04-15T18:13:29.282Z,3.83
2023-04-15T18:15:56.869Z,4.20
2023-04-15T18:18:24.069Z,3.95
2023-04-15T18:20:51.364Z,4.00
2023-04-15T18:23:18.382Z,5.18
2023-04-15T18:25:46.074Z,5.15
2023-04-15T18:28:13.744Z,5.15
2023-04-15T18:30:41.204Z,5.60
2023-04-15T18:33:08.232Z,6.07
2023-04-15T18:35:37.037Z,5.90
2023-04-15T18:38:04.293Z,4.90
2023-04-15T18:40:31.645Z,5.25
2023-04-15T18:42:58.637Z,7.32
2023-04-15T18:45:25.862Z,5.63
2023-04-15T18:47:52.922Z,6.72
2023-04-15T18:50:20.524Z,7.72
2023-04-15T18:52:47.738Z,5.75
2023-04-15T18:55:17.176Z,6.15
2023-04-15T18:57:46.728Z,5.95
2023-04-15T19:00:17.190Z,6.25
2023-04-15T19:02:44.449Z,6.75
2023-04-15T19:05:12.057Z,7.00
2023-04-15T19:07:41.329Z,7.50
2023-04-15T19:10:09.321Z,6.93
2023-04-15T19:12:40.379Z,7.57
2023-04-15T19:15:08.387Z,7.55
2023-04-15T19:17:35.393Z,8.13
2023-04-15T19:20:02.864Z,8.85
2023-04-15T19:22:30.941Z,9.30
2023-04-15T19:24:59.214Z,10.52
2023-04-15T19:27:28.391Z,9.70
2023-04-15T19:29:55.673Z,9.85
2023-04-15T19:32:23.099Z,10.20
2023-04-15T19:34:50.583Z,9.90
2023-04-15T19:37:18.372Z,9.30
2023-04-15T19:39:46.432Z,7.88
2023-04-15T19:42:13.357Z,8.13
2023-04-15T19:44:42.902Z,8.40
2023-04-15T19:47:11.168Z,8.30
2023-04-15T19:49:39.228Z,8.77
2023-04-15T19:52:06.269Z,9.73
2023-04-15T19:54:33.512Z,8.85
2023-04-15T19:57:02.096Z,11.25
2023-04-15T19:59:29.577Z,9.07
2023-04-15T20:01:58.672Z,9.00
2023-04-15T20:04:26.214Z,9.35
2023-04-15T20:06:54.932Z,8.38
2023-04-15T20:09:22.478Z,8.52
2023-04-15T20:12:45.007Z,9.57
2023-04-15T20:14:37.000Z,10.32
2023-04-15T20:17:03.986Z,10.32
2023-04-15T20:19:31.320Z,9.80
2023-04-15T20:21:58.399Z,13.40
2023-04-15T20:24:25.826Z,9.88
2023-04-15T20:26:52.877Z,9.00
2023-04-15T20:29:20.413Z,9.60
2023-04-15T20:31:47.581Z,10.43
2023-04-15T20:34:14.871Z,10.23
2023-04-15T20:36:42.280Z,8.70
2023-04-15T20:39:09.510Z,8.98
2023-04-15T20:41:36.498Z,9.82
2023-04-15T20:44:03.691Z,11.77
2023-04-15T20:46:30.645Z,10.10
2023-04-15T20:48:57.978Z,19.45
2023-04-15T20:51:25.106Z,18.38
2023-04-15T20:53:52.787Z,18.92
2023-04-15T20:56:19.719Z,15.98
2023-04-15T20:58:46.969Z,14.85
2023-04-15T21:01:14.591Z,15.60
2023-04-15T21:03:43.452Z,14.10
2023-04-15T21:06:10.630Z,11.25
2023-04-15T21:08:38.589Z,10.50
2023-04-15T21:11:05.787Z,11.35
2023-04-15T21:13:33.721Z,9.38
2023-04-15T21:16:01.623Z,10.68
2023-04-15T21:18:29.227Z,11.20
2023-04-15T21:21:01.586Z,12.55
2023-04-15T21:23:30.185Z,9.55
2023-04-15T21:25:58.995Z,10.48
2023-04-15T21:28:28.108Z,12.30
2023-04-15T21:30:56.606Z,11.30
2023-04-15T21:33:24.268Z,15.35
2023-04-15T21:35:51.722Z,10.32
2023-04-15T21:38:20.757Z,9.02
2023-04-15T21:40:52.089Z,9.60
2023-04-15T21:43:21.646Z,9.70
2023-04-15T21:46:21.863Z,10.02
2023-04-15T21:48:36.623Z,14.27
2023-04-15T21:51:04.016Z,9.93
2023-04-15T21:53:31.309Z,12.07
2023-04-15T21:55:58.482Z,11.02
2023-04-15T21:58:26.327Z,10.15
2023-04-15T22:01:00.402Z,11.35
2023-04-15T22:06:05.213Z,9.82
2023-04-15T22:08:41.251Z,9.85
2023-04-15T22:11:28.829Z,10.90
2023-04-15T22:13:58.385Z,11.02
2023-04-15T22:16:26.970Z,14.05
2023-04-15T22:18:55.804Z,14.10
2023-04-15T22:21:23.376Z,11.10
2023-04-15T22:23:51.986Z,13.43
2023-04-15T22:26:19.264Z,10.65
2023-04-15T22:28:46.566Z,10.23
2023-04-15T22:31:14.899Z,10.63
2023-04-15T22:33:42.525Z,9.20
2023-04-15T22:36:09.635Z,9.95
2023-04-15T22:38:36.951Z,10.65
2023-04-15T22:41:04.068Z,10.13
2023-04-15T22:43:31.506Z,8.57
2023-04-15T22:45:58.640Z,8.77
2023-04-15T22:48:26.631Z,8.77
2023-04-15T22:50:53.778Z,7.40
2023-04-15T22:53:21.346Z,8.55
2023-04-15T22:55:49.543Z,9.00
2023-04-15T22:58:18.360Z,8.90
2023-04-15T23:00:45.854Z,8.38
2023-04-15T23:03:13.421Z,7.78
2023-04-15T23:05:41.295Z,9.02
2023-04-15T23:08:08.931Z,8.68
2023-04-15T23:10:40.778Z,7.50
2023-04-15T23:13:09.222Z,7.95
2023-04-15T23:15:36.696Z,19.90
2023-04-15T23:18:05.153Z,15.98
2023-04-15T23:20:33.204Z,16.77
2023-04-15T23:23:01.544Z,9.38
2023-04-15T23:25:29.146Z,14.20
2023-04-15T23:27:56.395Z,12.88
2023-04-15T23:30:23.394Z,13.55
2023-04-15T23:32:50.762Z,14.45
2023-04-15T23:35:17.959Z,11.73
2023-04-15T23:37:45.527Z,10.40
2023-04-15T23:40:13.589Z,10.00
2023-04-15T23:42:41.663Z,11.13
2023-04-15T23:45:11.716Z,10.50
2023-04-15T23:47:41.016Z,10.57
2023-04-15T23:50:09.749Z,9.95
2023-04-15T23:52:37.154Z,10.00
2023-04-15T23:55:05.021Z,10.63
2023-04-15T23:57:32.305Z,11.52
